createdAt,value
2019-03-11T00:01:43.316Z,2.58
2019-03-11T00:06:49.570Z,2.73
2019-03-11T00:11:57.037Z,2.43
2019-03-11T00:17:03.453Z,2.10
2019-03-11T00:22:09.838Z,2.00
2019-03-11T00:27:16.152Z,1.80
2019-03-11T00:32:22.538Z,1.60
2019-03-11T00:37:29.169Z,1.77
2019-03-11T00:42:35.571Z,1.90
2019-03-11T00:47:41.792Z,1.87
2019-03-11T00:52:49.158Z,2.17
2019-03-11T00:57:55.364Z,2.05
2019-03-11T01:03:03.671Z,2.30
2019-03-11T01:08:09.925Z,2.40
2019-03-11T01:13:16.116Z,2.00
2019-03-11T01:18:22.758Z,2.33
2019-03-11T01:23:29.068Z,2.10
2019-03-11T01:28:35.414Z,2.40
2019-03-11T01:33:41.641Z,2.25
2019-03-11T01:38:47.887Z,2.15
2019-03-11T01:43:54.154Z,2.50
2019-03-11T01:49:01.585Z,2.20
2019-03-11T01:54:07.887Z,2.50
2019-03-11T01:59:15.050Z,2.83
2019-03-11T02:04:21.281Z,2.27
2019-03-11T02:09:27.552Z,2.37
2019-03-11T02:14:33.803Z,2.90
2019-03-11T02:19:40.146Z,2.70
2019-03-11T02:24:46.339Z,2.57
2019-03-11T02:29:52.635Z,3.00
2019-03-11T02:34:58.910Z,3.67
2019-03-11T02:40:06.137Z,2.87
2019-03-11T02:45:12.903Z,2.70
2019-03-11T02:50:19.159Z,2.43
2019-03-11T02:55:25.428Z,2.65
2019-03-11T03:00:31.664Z,2.45
2019-03-11T03:05:50.709Z,2.43
2019-03-11T03:10:57.011Z,3.33
2019-03-11T03:16:03.335Z,2.77
2019-03-11T03:21:09.620Z,2.43
2019-03-11T03:26:15.937Z,2.43
2019-03-11T03:31:23.005Z,2.58
2019-03-11T03:36:29.972Z,2.87
2019-03-11T03:41:37.104Z,3.07
2019-03-11T03:46:43.490Z,2.77
2019-03-11T03:51:49.736Z,2.60
2019-03-11T03:56:56.105Z,2.90
2019-03-11T04:02:02.430Z,2.30
2019-03-11T04:07:08.758Z,2.23
2019-03-11T04:12:16.166Z,3.10
2019-03-11T04:17:22.426Z,2.45
2019-03-11T04:22:29.437Z,2.23
2019-03-11T04:27:35.888Z,2.10
2019-03-11T04:32:42.421Z,2.40
2019-03-11T04:37:48.724Z,2.40
2019-03-11T04:42:55.102Z,2.90
2019-03-11T04:48:01.322Z,2.67
2019-03-11T04:53:07.654Z,2.83
2019-03-11T04:58:13.936Z,2.47
2019-03-11T05:03:20.165Z,3.00
2019-03-11T05:08:26.454Z,2.42
2019-03-11T05:13:32.840Z,2.77
2019-03-11T05:18:39.056Z,2.63
2019-03-11T05:23:45.270Z,2.33
2019-03-11T05:28:51.504Z,2.37
2019-03-11T05:33:57.862Z,2.20
2019-03-11T05:39:05.071Z,2.70
2019-03-11T05:44:11.367Z,2.75
2019-03-11T05:49:17.726Z,3.10
2019-03-11T05:54:24.165Z,2.83
2019-03-11T05:59:30.580Z,3.00
2019-03-11T06:04:37.099Z,3.77
2019-03-11T06:09:43.437Z,3.53
2019-03-11T06:14:50.843Z,3.90
2019-03-11T06:20:07.719Z,6.03
2019-03-11T06:25:14.119Z,5.90
2019-03-11T06:30:20.394Z,5.80
2019-03-11T06:35:26.673Z,5.17
2019-03-11T06:40:33.110Z,4.47
2019-03-11T06:45:39.695Z,4.77
2019-03-11T06:50:45.931Z,4.33
2019-03-11T06:55:52.417Z,3.33
2019-03-11T07:00:58.702Z,3.65
2019-03-11T07:06:05.738Z,2.90
2019-03-11T07:11:12.301Z,2.63
2019-03-11T07:16:19.032Z,2.75
2019-03-11T07:21:26.399Z,3.83
2019-03-11T07:26:32.698Z,2.57
2019-03-11T07:31:38.995Z,3.00
2019-03-11T07:36:45.669Z,2.30
2019-03-11T07:41:52.201Z,3.17
2019-03-11T07:46:58.558Z,2.92
2019-03-11T07:52:05.658Z,3.13
2019-03-11T07:57:12.943Z,3.67
2019-03-11T08:02:19.326Z,3.70
2019-03-11T08:07:27.441Z,3.73
2019-03-11T08:12:33.762Z,3.23
2019-03-11T08:17:40.221Z,4.47
2019-03-11T08:22:46.830Z,4.27
2019-03-11T08:27:53.204Z,4.23
2019-03-11T08:32:59.465Z,4.37
2019-03-11T08:38:05.751Z,3.95
2019-03-11T08:43:12.056Z,3.67
2019-03-11T08:48:18.531Z,4.43
2019-03-11T08:53:24.746Z,3.87
2019-03-11T08:58:31.041Z,5.60
2019-03-11T09:03:37.414Z,3.80
2019-03-11T09:08:43.767Z,3.60
2019-03-11T09:13:50.174Z,2.97
2019-03-11T09:18:56.572Z,3.00
2019-03-11T09:24:03.050Z,2.97
2019-03-11T09:29:09.512Z,2.83
2019-03-11T09:34:16.103Z,3.55
2019-03-11T09:39:22.686Z,2.55
2019-03-11T09:44:29.004Z,2.20
2019-03-11T09:49:35.477Z,2.20
2019-03-11T09:54:41.902Z,2.10
2019-03-11T09:59:48.294Z,2.97
2019-03-11T10:04:54.766Z,2.08
2019-03-11T10:10:01.088Z,2.40
2019-03-11T10:15:09.182Z,2.30
2019-03-11T10:20:15.796Z,2.50
2019-03-11T10:25:22.178Z,2.27
2019-03-11T10:30:28.508Z,2.50
2019-03-11T10:35:35.181Z,2.87
2019-03-11T10:40:41.585Z,2.30
2019-03-11T10:45:47.971Z,2.10
2019-03-11T10:50:54.377Z,2.63
2019-03-11T10:56:01.063Z,2.12
2019-03-11T11:01:09.603Z,2.10
2019-03-11T11:06:17.249Z,2.93
2019-03-11T11:11:23.824Z,2.47
2019-03-11T11:16:30.152Z,2.63
2019-03-11T11:21:36.471Z,2.03
2019-03-11T11:26:42.810Z,2.43
2019-03-11T11:31:49.209Z,2.40
2019-03-11T11:36:55.452Z,2.17
2019-03-11T11:42:01.899Z,1.80
2019-03-11T11:47:08.546Z,2.30
2019-03-11T11:52:14.974Z,2.35
2019-03-11T11:57:21.366Z,2.63
2019-03-11T12:02:27.644Z,2.10
2019-03-11T12:07:33.996Z,1.93
2019-03-11T12:12:40.405Z,2.70
2019-03-11T12:17:46.870Z,2.30
2019-03-11T12:22:53.310Z,2.10
2019-03-11T12:27:59.944Z,2.00
2019-03-11T12:33:25.380Z,2.00
2019-03-11T12:38:31.902Z,2.73
2019-03-11T12:43:38.253Z,2.20
2019-03-11T12:48:44.746Z,2.07
2019-03-11T12:53:51.213Z,2.33
2019-03-11T12:58:59.456Z,2.00
2019-03-11T13:04:05.793Z,1.90
2019-03-11T13:09:12.264Z,2.20
2019-03-11T13:14:18.932Z,1.80
2019-03-11T13:19:25.264Z,2.03
2019-03-11T13:24:31.651Z,2.67
2019-03-11T13:29:39.028Z,2.40
2019-03-11T13:34:46.595Z,2.00
2019-03-11T13:39:52.972Z,2.57
2019-03-11T13:44:59.405Z,2.07
2019-03-11T13:50:07.047Z,2.43
2019-03-11T13:55:13.834Z,2.97
2019-03-11T14:00:20.192Z,2.27
2019-03-11T14:05:26.458Z,2.72
2019-03-11T14:10:32.882Z,2.70
2019-03-11T14:15:39.264Z,2.87
2019-03-11T14:20:45.611Z,2.40
2019-03-11T14:25:52.374Z,2.33
2019-03-11T14:30:58.701Z,2.30
2019-03-11T14:36:05.761Z,2.80
2019-03-11T14:41:12.163Z,2.03
2019-03-11T14:46:18.545Z,2.50
2019-03-11T14:51:24.964Z,2.43
2019-03-11T14:56:31.289Z,2.60
2019-03-11T15:01:37.631Z,2.83
2019-03-11T15:06:43.953Z,2.03
2019-03-11T15:11:50.502Z,2.20
2019-03-11T15:16:56.842Z,2.07
2019-03-11T15:22:03.207Z,2.37
2019-03-11T15:27:09.784Z,2.13
2019-03-11T15:32:16.151Z,2.13
2019-03-11T15:37:22.825Z,2.67
2019-03-11T15:42:29.227Z,2.23
2019-03-11T15:47:35.586Z,2.17
2019-03-11T15:52:42.026Z,2.50
2019-03-11T15:57:48.732Z,2.50
2019-03-11T16:02:55.191Z,2.23
2019-03-11T16:08:01.417Z,2.25
2019-03-11T16:13:08.094Z,2.47
2019-03-11T16:18:14.485Z,2.40
2019-03-11T16:23:20.901Z,2.10
2019-03-11T16:28:28.156Z,2.43
2019-03-11T16:33:34.666Z,2.10
2019-03-11T16:38:41.453Z,2.47
2019-03-11T16:43:47.904Z,2.27
2019-03-11T16:48:55.346Z,2.72
2019-03-11T16:54:02.581Z,2.30
2019-03-11T16:59:09.992Z,3.10
2019-03-11T17:04:16.239Z,2.63
2019-03-11T17:09:22.911Z,2.83
2019-03-11T17:14:29.215Z,2.40
2019-03-11T17:19:35.466Z,2.27
2019-03-11T17:24:43.549Z,2.05
2019-03-11T17:29:49.934Z,2.73
2019-03-11T17:34:56.378Z,2.67
2019-03-11T17:40:03.232Z,3.00
2019-03-11T17:45:10.787Z,2.37
2019-03-11T17:50:18.080Z,2.27
2019-03-11T17:55:24.482Z,3.50
2019-03-11T18:00:32.080Z,3.60
2019-03-11T18:05:38.972Z,3.50
2019-03-11T18:10:45.467Z,2.23
2019-03-11T18:15:51.869Z,2.60
2019-03-11T18:20:59.826Z,3.27
2019-03-11T18:26:06.450Z,2.63
2019-03-11T18:31:12.858Z,2.80
2019-03-11T18:36:20.116Z,2.40
2019-03-11T18:41:26.752Z,2.83
2019-03-11T18:46:33.261Z,3.10
2019-03-11T18:51:39.628Z,2.47
2019-03-11T18:56:46.269Z,3.33
2019-03-11T19:01:52.559Z,3.25
2019-03-11T19:06:59.186Z,3.13
2019-03-11T19:12:05.832Z,3.60
2019-03-11T19:17:14.290Z,4.10
2019-03-11T19:22:20.613Z,2.90
2019-03-11T19:27:27.266Z,3.33
2019-03-11T19:32:33.687Z,3.07
2019-03-11T19:37:39.990Z,3.93
2019-03-11T19:42:46.581Z,6.93
2019-03-11T19:47:53.105Z,3.90
2019-03-11T19:52:59.708Z,3.63
2019-03-11T19:58:06.251Z,3.47
2019-03-11T20:03:23.672Z,3.30
2019-03-11T20:08:20.868Z,3.43
2019-03-11T20:13:29.071Z,2.90
2019-03-11T20:18:35.465Z,3.30
2019-03-11T20:23:41.983Z,3.17
2019-03-11T20:28:48.458Z,3.08
2019-03-11T20:33:54.983Z,3.45
2019-03-11T20:39:01.537Z,3.27
2019-03-11T20:44:09.571Z,2.70
2019-03-11T20:49:15.900Z,3.52
2019-03-11T20:54:23.297Z,3.70
2019-03-11T20:59:29.577Z,2.40
2019-03-11T21:04:36.006Z,3.00
2019-03-11T21:09:42.341Z,2.70
2019-03-11T21:14:48.691Z,2.72
2019-03-11T21:19:55.550Z,2.93
2019-03-11T21:25:02.004Z,3.40
2019-03-11T21:30:10.808Z,3.07
2019-03-11T21:35:17.550Z,3.73
2019-03-11T21:40:23.992Z,3.77
2019-03-11T21:45:34.561Z,4.60
2019-03-11T21:50:40.053Z,3.60
2019-03-11T21:55:57.778Z,3.80
2019-03-11T22:01:04.150Z,4.00
2019-03-11T22:06:10.535Z,3.50
2019-03-11T22:11:17.029Z,3.90
2019-03-11T22:16:23.436Z,4.13
2019-03-11T22:21:29.707Z,3.60
2019-03-11T22:26:36.033Z,3.53
2019-03-11T22:31:42.227Z,3.40
2019-03-11T22:36:49.597Z,3.12
2019-03-11T22:41:56.264Z,4.10
2019-03-11T22:47:02.508Z,4.67
2019-03-11T22:52:08.994Z,3.80
2019-03-11T22:57:15.469Z,4.00
2019-03-11T23:02:21.711Z,4.95
2019-03-11T23:07:28.006Z,4.07
2019-03-11T23:12:34.287Z,4.23
2019-03-11T23:17:40.580Z,4.80
2019-03-11T23:22:46.926Z,6.00
2019-03-11T23:27:53.225Z,5.87
2019-03-11T23:32:59.531Z,6.05
2019-03-11T23:38:05.959Z,6.80
2019-03-11T23:43:12.430Z,6.62
2019-03-11T23:48:18.936Z,6.35
2019-03-11T23:53:25.235Z,7.30
2019-03-11T23:58:31.639Z,7.77
